Time;durP1;ratioP1;P1;durP2;ratioP2;P2;SDS_P1;SDS_P2;PMS_P1;PMS_P2;Temp;Humidity;BMP_temperature;BMP_pressure;BME280_temperature;BME280_humidity;BME280_pressure;Samples;Min_cycle;Max_cycle;Signal;HPM_P1;HPM_P2
2021/05/15 00:03:35;;;;;;;0.77;0.77;;;12.40;75.70;;;;;;10176289;28;20036;-68
2021/05/15 00:08:26;;;;;;;0.40;0.32;;;12.40;75.40;;;;;;10166548;28;20659;-67
2021/05/15 00:13:17;;;;;;;0.70;0.40;;;12.40;75.30;;;;;;10172569;28;20235;-65
2021/05/15 00:18:08;;;;;;;0.50;0.40;;;12.50;75.30;;;;;;10173795;28;20024;-67
2021/05/15 00:22:59;;;;;;;0.85;0.60;;;12.50;75.00;;;;;;10170307;28;20027;-69
2021/05/15 00:27:50;;;;;;;1.02;0.50;;;12.50;74.70;;;;;;10176508;27;20324;-66
2021/05/15 00:32:41;;;;;;;0.60;0.40;;;12.40;74.90;;;;;;10179895;27;20044;-66
2021/05/15 00:37:34;;;;;;;0.75;0.40;;;12.40;74.80;;;;;;10185363;27;20104;-69
2021/05/15 00:42:28;;;;;;;0.88;0.60;;;12.30;74.60;;;;;;10183255;27;20043;-68
2021/05/15 00:47:21;;;;;;;0.75;0.57;;;12.20;75.10;;;;;;10148044;27;20059;-67
2021/05/15 00:52:12;;;;;;;0.40;0.38;;;12.10;75.10;;;;;;10172768;27;20080;-67
2021/05/15 00:57:04;;;;;;;0.98;0.95;;;12.20;74.90;;;;;;10165901;27;20051;-64
2021/05/15 01:01:55;;;;;;;0.45;0.45;;;12.10;75.20;;;;;;10177109;27;20024;-65
2021/05/15 01:06:45;;;;;;;0.52;0.30;;;12.10;75.30;;;;;;10172708;27;20059;-64
2021/05/15 01:11:36;;;;;;;1.42;0.47;;;12.00;75.40;;;;;;10172308;27;20092;-64
2021/05/15 01:16:27;;;;;;;1.00;0.40;;;12.10;75.30;;;;;;10171114;27;20040;-66
2021/05/15 01:21:18;;;;;;;1.02;0.50;;;12.10;75.50;;;;;;10175719;27;20684;-65
2021/05/15 01:26:21;;;;;;;2.63;0.50;;;12.10;75.60;;;;;;10169148;27;20028;-65
2021/05/15 01:31:13;;;;;;;0.50;0.50;;;12.10;75.50;;;;;;10171435;27;20110;-65
2021/05/15 01:36:05;;;;;;;0.30;0.30;;;12.10;75.90;;;;;;10171356;27;20448;-65
2021/05/15 01:41:05;;;;;;;1.73;0.77;;;12.10;75.90;;;;;;10169910;27;20028;-66
2021/05/15 01:45:55;;;;;;;1.15;0.65;;;12.10;75.80;;;;;;10179063;27;20035;-66
2021/05/15 01:50:59;;;;;;;1.33;0.90;;;12.10;75.90;;;;;;10155544;27;20401;-66
2021/05/15 01:55:50;;;;;;;0.82;0.60;;;12.10;76.30;;;;;;10153150;27;20059;-65
2021/05/15 02:00:41;;;;;;;1.08;0.82;;;12.20;75.90;;;;;;10168161;27;20062;-65
2021/05/15 02:05:32;;;;;;;3.22;0.60;;;12.10;76.10;;;;;;10178133;27;20374;-67
2021/05/15 02:10:22;;;;;;;2.00;1.52;;;12.10;76.50;;;;;;10166813;27;20465;-65
2021/05/15 02:15:13;;;;;;;1.35;0.70;;;12.00;76.60;;;;;;10152812;27;20425;-65
2021/05/15 02:20:05;;;;;;;1.27;0.52;;;12.10;76.30;;;;;;10161623;27;20517;-64
2021/05/15 02:24:55;;;;;;;1.08;0.50;;;12.10;76.50;;;;;;10164478;27;21068;-65
2021/05/15 02:29:46;;;;;;;1.13;0.63;;;12.10;76.40;;;;;;10161111;28;20413;-64
2021/05/15 02:34:37;;;;;;;2.00;0.60;;;12.10;76.50;;;;;;10171598;27;20689;-65
2021/05/15 02:39:28;;;;;;;0.95;0.77;;;12.10;76.50;;;;;;10173887;27;20036;-65
2021/05/15 02:44:21;;;;;;;1.63;0.75;;;12.10;76.40;;;;;;10149824;28;20039;-65
2021/05/15 02:49:12;;;;;;;1.77;0.52;;;12.10;76.40;;;;;;10162306;27;20059;-65
2021/05/15 02:54:03;;;;;;;1.27;0.77;;;12.00;76.60;;;;;;10183819;27;20035;-67
2021/05/15 02:58:54;;;;;;;1.13;0.60;;;12.00;76.40;;;;;;10165003;27;20555;-65
2021/05/15 03:03:46;;;;;;;0.93;0.60;;;12.00;76.40;;;;;;10172737;27;20055;-66
2021/05/15 03:08:37;;;;;;;0.75;0.70;;;12.10;76.40;;;;;;10158765;27;20040;-64
2021/05/15 03:13:28;;;;;;;1.40;0.85;;;12.00;76.60;;;;;;10159416;27;20395;-64
2021/05/15 03:18:19;;;;;;;2.38;0.73;;;12.10;76.70;;;;;;10162878;27;20831;-66
2021/05/15 03:23:10;;;;;;;0.50;0.50;;;12.10;76.70;;;;;;10158975;27;20400;-65
2021/05/15 03:28:01;;;;;;;1.08;0.52;;;12.00;76.60;;;;;;10169964;27;20478;-64
2021/05/15 03:32:52;;;;;;;0.85;0.55;;;12.00;76.70;;;;;;10149537;28;20046;-65
2021/05/15 03:37:43;;;;;;;1.92;0.80;;;12.00;76.60;;;;;;10159740;28;20035;-64
2021/05/15 03:42:33;;;;;;;0.68;0.57;;;12.00;76.70;;;;;;10161488;28;20331;-65
2021/05/15 03:47:24;;;;;;;1.25;0.50;;;11.90;76.90;;;;;;10162391;28;20322;-65
2021/05/15 03:52:15;;;;;;;0.57;0.57;;;11.90;76.90;;;;;;10159896;28;20577;-65
2021/05/15 03:57:06;;;;;;;0.63;0.45;;;12.00;76.50;;;;;;10169704;28;20493;-66
2021/05/15 04:01:57;;;;;;;1.08;0.60;;;12.10;76.50;;;;;;10171603;27;20047;-67
2021/05/15 04:06:48;;;;;;;0.95;0.63;;;12.00;76.60;;;;;;10163107;27;20031;-67
2021/05/15 04:11:40;;;;;;;1.63;0.50;;;12.10;76.60;;;;;;10171754;27;20039;-66
2021/05/15 04:16:45;;;;;;;1.02;0.68;;;12.10;76.70;;;;;;10180416;27;20035;-65
2021/05/15 04:21:36;;;;;;;1.00;0.63;;;12.00;76.70;;;;;;10179455;27;20027;-64
2021/05/15 04:26:27;;;;;;;0.63;0.63;;;12.10;76.50;;;;;;10175404;27;20027;-65
2021/05/15 04:31:17;;;;;;;0.98;0.55;;;12.20;76.30;;;;;;10181885;27;20575;-64
2021/05/15 04:36:09;;;;;;;2.08;0.50;;;12.10;77.10;;;;;;10186565;27;20270;-65
2021/05/15 04:40:59;;;;;;;1.65;0.88;;;12.20;76.40;;;;;;10173197;27;20050;-65
2021/05/15 04:45:52;;;;;;;1.55;0.80;;;12.10;76.60;;;;;;10182784;27;21352;-65
2021/05/15 04:50:43;;;;;;;2.08;1.10;;;12.20;76.80;;;;;;10164478;27;20035;-65
2021/05/15 04:55:34;;;;;;;1.00;0.73;;;12.20;76.80;;;;;;10178723;27;20552;-64
2021/05/15 05:00:25;;;;;;;1.25;0.63;;;12.20;76.70;;;;;;10181830;27;20069;-63
2021/05/15 05:05:16;;;;;;;2.40;0.52;;;12.30;76.60;;;;;;10193786;27;20092;-65
2021/05/15 05:10:07;;;;;;;1.92;0.65;;;12.30;76.70;;;;;;10199655;27;20027;-65
2021/05/15 05:14:58;;;;;;;1.13;0.73;;;12.30;76.70;;;;;;10195557;27;20051;-64
2021/05/15 05:19:50;;;;;;;1.05;0.85;;;12.40;76.70;;;;;;10197269;27;20067;-67
2021/05/15 05:24:41;;;;;;;0.70;0.45;;;12.40;76.90;;;;;;10196079;27;20048;-64
2021/05/15 05:29:31;;;;;;;2.30;0.90;;;12.40;76.90;;;;;;10196479;27;20544;-65
2021/05/15 05:34:23;;;;;;;0.40;0.40;;;12.50;76.90;;;;;;10199857;27;20038;-64
2021/05/15 05:39:20;;;;;;;0.70;0.60;;;12.70;76.50;;;;;;10196671;27;20093;-68
2021/05/15 05:44:12;;;;;;;0.90;0.65;;;12.80;76.60;;;;;;10197345;27;20031;-65
2021/05/15 05:49:03;;;;;;;0.88;0.68;;;12.70;76.60;;;;;;10195360;27;20075;-64
2021/05/15 05:53:54;;;;;;;0.65;0.57;;;12.80;76.70;;;;;;10193080;27;20039;-64
2021/05/15 05:58:46;;;;;;;1.67;0.70;;;12.90;76.50;;;;;;10198541;27;20112;-66
2021/05/15 06:03:37;;;;;;;1.35;0.60;;;12.80;76.80;;;;;;10194648;27;20092;-65
2021/05/15 06:08:27;;;;;;;0.70;0.70;;;12.80;76.50;;;;;;10198249;27;20043;-65
2021/05/15 06:13:21;;;;;;;0.68;0.50;;;12.80;76.90;;;;;;10196432;27;20162;-66
2021/05/15 06:18:12;;;;;;;2.15;0.73;;;12.90;76.80;;;;;;10197286;27;20099;-68
2021/05/15 06:23:03;;;;;;;1.73;0.80;;;12.90;76.70;;;;;;10191646;27;20032;-66
2021/05/15 06:27:54;;;;;;;2.28;1.00;;;13.00;76.90;;;;;;10196427;27;20042;-64
2021/05/15 06:32:45;;;;;;;1.45;0.73;;;13.00;76.80;;;;;;10184093;27;20428;-65
2021/05/15 06:37:36;;;;;;;1.80;0.82;;;13.30;76.60;;;;;;10173658;27;20032;-64
2021/05/15 06:42:27;;;;;;;0.70;0.68;;;13.40;76.20;;;;;;10185516;27;20185;-65
2021/05/15 06:47:26;;;;;;;1.02;0.70;;;13.40;76.20;;;;;;10216964;27;20796;-65
2021/05/15 06:52:18;;;;;;;1.25;0.85;;;13.30;76.40;;;;;;10178088;28;20607;-67
2021/05/15 06:57:09;;;;;;;1.98;1.30;;;13.30;76.30;;;;;;10166793;28;20042;-64
2021/05/15 07:02:00;;;;;;;1.40;0.73;;;13.40;76.20;;;;;;10170335;28;20513;-65
2021/05/15 07:06:51;;;;;;;1.42;0.70;;;13.60;76.00;;;;;;10176605;27;20048;-66
2021/05/15 07:11:51;;;;;;;0.55;0.52;;;13.80;75.70;;;;;;10170584;28;20135;-65
2021/05/15 07:16:42;;;;;;;1.77;0.90;;;13.90;75.30;;;;;;10175908;28;20028;-67
2021/05/15 07:21:33;;;;;;;1.70;0.85;;;14.00;75.40;;;;;;10165291;28;20028;-68
2021/05/15 07:26:24;;;;;;;0.98;0.68;;;14.00;75.10;;;;;;10182933;28;20035;-68
2021/05/15 07:31:15;;;;;;;0.95;0.75;;;14.00;74.90;;;;;;10169250;28;20019;-64
2021/05/15 07:36:05;;;;;;;2.50;1.05;;;14.30;74.40;;;;;;10169176;28;20292;-67
2021/05/15 07:40:57;;;;;;;2.35;0.70;;;14.50;74.10;;;;;;10175345;28;20036;-65
2021/05/15 07:45:48;;;;;;;3.38;1.20;;;14.50;73.50;;;;;;10180480;28;20722;-64
2021/05/15 07:50:39;;;;;;;0.98;0.80;;;14.40;73.90;;;;;;10175873;28;20528;-63
2021/05/15 07:55:29;;;;;;;1.38;0.82;;;14.30;73.70;;;;;;10162703;28;20028;-64
2021/05/15 08:00:20;;;;;;;2.60;0.90;;;14.20;74.20;;;;;;10135395;28;20282;-62
2021/05/15 08:05:11;;;;;;;1.52;1.05;;;14.40;73.90;;;;;;10142727;28;21139;-64
2021/05/15 08:10:03;;;;;;;3.17;0.85;;;14.50;73.20;;;;;;10146389;28;20128;-62
2021/05/15 08:14:54;;;;;;;1.85;0.73;;;14.60;72.90;;;;;;10142914;28;20131;-66
2021/05/15 08:19:45;;;;;;;2.13;1.35;;;14.70;72.60;;;;;;10141196;28;20044;-64
2021/05/15 08:24:36;;;;;;;3.03;2.03;;;15.00;72.20;;;;;;10132733;28;20039;-63
2021/05/15 08:29:28;;;;;;;2.85;1.13;;;15.10;72.00;;;;;;10144519;28;20085;-64
2021/05/15 08:34:19;;;;;;;1.05;0.73;;;15.30;71.90;;;;;;10153563;28;20054;-64
2021/05/15 08:39:11;;;;;;;3.17;1.10;;;15.20;71.60;;;;;;10137751;28;20027;-64
2021/05/15 08:44:02;;;;;;;4.57;1.95;;;15.30;71.40;;;;;;10142110;28;20115;-63
2021/05/15 08:48:55;;;;;;;1.42;1.02;;;15.60;71.00;;;;;;10147166;28;20460;-65
2021/05/15 08:53:46;;;;;;;3.45;1.10;;;15.70;70.20;;;;;;10142577;28;20085;-66
2021/05/15 08:58:38;;;;;;;2.38;1.17;;;15.80;69.80;;;;;;10150936;28;20063;-64
2021/05/15 09:03:29;;;;;;;3.15;1.88;;;16.00;69.70;;;;;;10140607;28;20113;-66
2021/05/15 09:08:19;;;;;;;1.85;1.00;;;16.10;69.20;;;;;;10139185;28;20036;-64
2021/05/15 09:13:20;;;;;;;4.75;1.52;;;16.20;68.70;;;;;;10149904;28;20047;-67
2021/05/15 09:18:14;;;;;;;1.52;1.00;;;16.40;68.00;;;;;;10142013;28;20051;-65
2021/05/15 09:23:12;;;;;;;1.10;0.53;;;16.40;67.70;;;;;;10134206;28;20476;-64
2021/05/15 09:28:03;;;;;;;2.13;1.02;;;16.50;66.50;;;;;;10144968;28;20054;-65
2021/05/15 09:32:54;;;;;;;0.98;0.75;;;16.50;66.40;;;;;;10135296;28;20081;-65
2021/05/15 09:37:50;;;;;;;4.00;1.52;;;16.60;66.00;;;;;;10131992;28;20528;-62
2021/05/15 09:43:01;;;;;;;1.10;0.93;;;16.60;65.10;;;;;;10143451;28;20197;-63
2021/05/15 09:47:54;;;;;;;2.85;0.90;;;17.00;64.20;;;;;;10142219;28;20035;-65
2021/05/15 09:52:45;;;;;;;1.08;0.77;;;17.10;64.00;;;;;;10143567;28;20349;-65
2021/05/15 09:57:36;;;;;;;0.90;0.70;;;17.40;63.00;;;;;;10140661;28;20059;-65
2021/05/15 10:02:27;;;;;;;3.05;0.90;;;17.60;62.70;;;;;;10133113;28;20039;-63
2021/05/15 10:07:29;;;;;;;1.95;0.65;;;17.60;62.50;;;;;;10126409;28;20052;-65
2021/05/15 10:12:22;;;;;;;2.35;0.80;;;17.60;62.30;;;;;;10141663;28;20029;-65
2021/05/15 10:17:13;;;;;;;7.82;2.60;;;17.50;62.00;;;;;;10139496;28;20352;-64
2021/05/15 10:22:04;;;;;;;2.58;0.80;;;17.30;61.90;;;;;;10133439;28;20032;-65
2021/05/15 10:27:13;;;;;;;1.13;0.75;;;17.30;61.50;;;;;;10132860;28;20059;-62
2021/05/15 10:32:04;;;;;;;1.73;0.98;;;17.00;61.10;;;;;;10134849;28;20020;-64
2021/05/15 10:36:55;;;;;;;3.42;1.42;;;17.20;61.00;;;;;;10127168;28;20091;-63
2021/05/15 10:41:46;;;;;;;8.32;3.03;;;17.80;59.60;;;;;;10137615;28;20052;-63
2021/05/15 10:46:44;;;;;;;1.70;0.88;;;18.10;59.30;;;;;;10133888;28;20406;-63
2021/05/15 10:51:50;;;;;;;4.35;1.05;;;18.30;58.90;;;;;;10141985;28;20046;-65
2021/05/15 10:56:41;;;;;;;2.25;0.70;;;18.60;57.80;;;;;;10133014;28;20039;-65
2021/05/15 11:01:54;;;;;;;1.15;0.90;;;18.40;57.30;;;;;;10128419;28;20581;-63
2021/05/15 11:06:56;;;;;;;1.23;0.70;;;18.00;56.50;;;;;;10139884;28;20840;-65
2021/05/15 11:11:49;;;;;;;1.17;0.80;;;17.80;57.00;;;;;;10134707;28;20035;-64
2021/05/15 11:16:40;;;;;;;2.30;0.90;;;17.80;56.90;;;;;;10127871;28;20066;-65
2021/05/15 11:21:38;;;;;;;4.47;0.70;;;17.70;56.70;;;;;;10148715;28;20027;-66
2021/05/15 11:26:46;;;;;;;2.28;0.85;;;17.40;56.20;;;;;;10130191;28;20033;-62
2021/05/15 11:31:38;;;;;;;1.95;0.85;;;17.20;56.20;;;;;;10135273;28;20035;-66
2021/05/15 11:36:29;;;;;;;0.90;0.52;;;17.10;56.10;;;;;;10143001;27;20536;-63
2021/05/15 11:41:22;;;;;;;3.70;0.70;;;17.00;55.90;;;;;;10144215;28;20031;-62
2021/05/15 11:46:14;;;;;;;1.33;0.98;;;17.00;55.50;;;;;;10146029;28;20059;-67
2021/05/15 11:51:18;;;;;;;1.05;0.80;;;17.40;54.70;;;;;;10137362;28;20115;-66
2021/05/15 11:56:20;;;;;;;2.85;0.70;;;17.50;54.40;;;;;;10142872;28;20028;-66
2021/05/15 12:01:35;;;;;;;1.45;1.00;;;17.50;54.20;;;;;;10140805;28;20028;-64
2021/05/15 12:06:26;;;;;;;1.60;1.20;;;17.40;54.00;;;;;;10141739;28;20051;-66
2021/05/15 12:11:17;;;;;;;2.47;0.88;;;17.50;54.40;;;;;;10142964;28;20196;-63
2021/05/15 12:16:08;;;;;;;1.80;0.70;;;17.40;54.40;;;;;;10147813;28;20020;-60
2021/05/15 12:21:04;;;;;;;1.88;0.90;;;17.60;54.40;;;;;;10143411;28;20024;-65
2021/05/15 12:26:03;;;;;;;0.90;0.70;;;17.40;54.00;;;;;;10137471;28;20055;-62
2021/05/15 12:30:55;;;;;;;1.70;0.57;;;17.10;54.60;;;;;;10143805;28;20058;-62
2021/05/15 12:36:01;;;;;;;2.65;0.63;;;16.80;54.50;;;;;;10139080;28;20070;-61
2021/05/15 12:40:52;;;;;;;1.95;0.93;;;16.80;54.10;;;;;;10137297;28;20055;-60
2021/05/15 12:45:45;;;;;;;3.38;1.92;;;16.80;54.10;;;;;;10136256;28;20070;-65
2021/05/15 12:50:37;;;;;;;1.25;0.57;;;16.70;54.10;;;;;;10137534;28;20158;-63
2021/05/15 12:55:28;;;;;;;1.15;0.75;;;16.60;54.10;;;;;;10141528;28;20032;-60
2021/05/15 13:00:21;;;;;;;0.93;0.90;;;16.40;54.10;;;;;;10137246;28;20284;-62
2021/05/15 13:05:17;;;;;;;1.77;0.80;;;16.40;54.30;;;;;;10142784;28;20071;-60
2021/05/15 13:10:11;;;;;;;1.23;0.70;;;16.40;54.30;;;;;;10132645;28;20047;-60
2021/05/15 13:15:03;;;;;;;2.47;0.88;;;16.40;54.50;;;;;;10140658;28;20074;-68
2021/05/15 13:19:54;;;;;;;1.02;0.60;;;16.30;54.70;;;;;;10140241;28;20023;-60
2021/05/15 13:24:45;;;;;;;0.85;0.70;;;16.40;54.90;;;;;;10137411;28;20074;-65
2021/05/15 13:29:36;;;;;;;1.20;0.70;;;16.30;55.20;;;;;;10139923;28;20036;-63
2021/05/15 13:34:27;;;;;;;3.65;1.30;;;16.20;55.50;;;;;;10133868;28;20063;-60
2021/05/15 13:39:18;;;;;;;2.08;0.85;;;16.20;55.80;;;;;;10134457;28;20027;-60
2021/05/15 13:44:09;;;;;;;3.47;0.90;;;16.20;56.10;;;;;;10132422;28;20045;-62
2021/05/15 13:49:02;;;;;;;0.95;0.70;;;16.20;56.50;;;;;;10138065;28;20039;-58
2021/05/15 13:53:53;;;;;;;1.60;0.80;;;16.20;56.40;;;;;;10130219;28;20059;-58
2021/05/15 13:58:46;;;;;;;1.08;0.98;;;16.20;56.60;;;;;;10130383;28;20035;-66
2021/05/15 14:03:38;;;;;;;1.80;1.20;;;16.30;56.60;;;;;;10132257;28;20044;-62
2021/05/15 14:08:28;;;;;;;2.42;0.88;;;16.40;56.80;;;;;;10135181;28;20086;-62
2021/05/15 14:13:20;;;;;;;3.50;1.30;;;16.20;57.10;;;;;;10142314;28;20035;-65
2021/05/15 14:18:11;;;;;;;3.40;1.35;;;16.20;57.60;;;;;;10134470;28;20025;-58
2021/05/15 14:23:02;;;;;;;3.70;0.90;;;16.10;58.20;;;;;;10145695;28;20622;-62
2021/05/15 14:27:53;;;;;;;1.52;0.85;;;16.00;58.20;;;;;;10143179;28;20379;-62
2021/05/15 14:32:44;;;;;;;4.18;1.00;;;16.10;58.20;;;;;;10136199;28;20040;-63
2021/05/15 14:37:36;;;;;;;2.15;0.70;;;15.80;58.90;;;;;;10145296;28;20396;-60
2021/05/15 14:42:27;;;;;;;0.60;0.60;;;15.70;59.50;;;;;;10135310;28;20036;-59
2021/05/15 14:47:18;;;;;;;2.15;0.70;;;15.60;60.50;;;;;;10136317;28;20435;-60
2021/05/15 14:52:09;;;;;;;0.90;0.70;;;15.70;60.60;;;;;;10136240;28;20028;-57
2021/05/15 14:57:01;;;;;;;2.20;1.33;;;15.70;61.30;;;;;;10139339;28;20036;-59
2021/05/15 15:01:54;;;;;;;1.45;1.10;;;15.90;61.50;;;;;;10137152;28;20475;-63
2021/05/15 15:06:45;;;;;;;1.38;1.08;;;15.70;62.30;;;;;;10143427;28;20173;-64
2021/05/15 15:11:35;;;;;;;1.45;1.17;;;15.40;63.50;;;;;;10142406;28;20501;-61
2021/05/15 15:16:27;;;;;;;1.33;1.20;;;15.40;63.50;;;;;;10145413;28;20386;-62
2021/05/15 15:21:18;;;;;;;2.47;1.10;;;15.50;63.60;;;;;;10148636;28;20032;-61
2021/05/15 15:26:09;;;;;;;1.77;0.93;;;15.50;63.70;;;;;;10145949;28;20048;-59
2021/05/15 15:31:00;;;;;;;2.58;1.00;;;15.50;64.20;;;;;;10147730;28;20062;-63
2021/05/15 15:35:51;;;;;;;1.63;0.95;;;15.30;64.50;;;;;;10149075;28;20051;-60
2021/05/15 15:40:42;;;;;;;0.55;0.55;;;15.20;64.80;;;;;;10146187;28;20077;-59
2021/05/15 15:45:33;;;;;;;2.05;0.57;;;15.20;65.30;;;;;;10149928;28;20054;-63
2021/05/15 15:50:24;;;;;;;2.20;0.82;;;16.10;64.30;;;;;;10138851;28;20441;-66
2021/05/15 15:55:16;;;;;;;1.55;1.00;;;16.90;63.00;;;;;;10149326;28;20039;-60
2021/05/15 16:00:08;;;;;;;1.35;0.85;;;17.40;62.80;;;;;;10137019;28;20464;-59
2021/05/15 16:04:59;;;;;;;0.73;0.60;;;17.00;63.40;;;;;;10141516;28;20054;-66
2021/05/15 16:09:50;;;;;;;0.90;0.70;;;16.30;64.50;;;;;;10142364;28;20040;-62
2021/05/15 16:14:41;;;;;;;1.35;0.60;;;15.90;65.10;;;;;;10153251;28;20521;-65
2021/05/15 16:19:34;;;;;;;1.48;0.45;;;15.90;65.20;;;;;;10152855;28;20925;-66
2021/05/15 16:24:25;;;;;;;0.95;0.50;;;16.20;64.50;;;;;;10158600;28;20039;-59
2021/05/15 16:29:16;;;;;;;1.35;0.43;;;16.50;63.60;;;;;;10152450;28;20039;-67
2021/05/15 16:34:06;;;;;;;3.78;1.92;;;16.30;64.10;;;;;;10144995;28;20042;-60
2021/05/15 16:38:57;;;;;;;1.27;0.50;;;15.90;65.30;;;;;;10143370;28;20039;-62
2021/05/15 16:43:50;;;;;;;1.10;0.50;;;15.60;65.90;;;;;;10141024;28;20056;-63
2021/05/15 16:48:41;;;;;;;1.05;0.40;;;15.40;66.00;;;;;;10149990;28;20262;-66
2021/05/15 16:53:33;;;;;;;1.10;0.47;;;15.40;66.10;;;;;;10141922;28;20044;-59
2021/05/15 16:58:25;;;;;;;2.63;0.88;;;15.60;65.70;;;;;;10141795;28;20028;-57
2021/05/15 17:03:16;;;;;;;0.82;0.50;;;15.60;65.60;;;;;;10135759;28;20047;-62
2021/05/15 17:08:07;;;;;;;0.40;0.38;;;15.60;65.80;;;;;;10150271;28;20063;-62
2021/05/15 17:12:57;;;;;;;1.33;0.98;;;15.50;66.30;;;;;;10135385;28;20311;-65
2021/05/15 17:17:48;;;;;;;1.48;0.85;;;16.20;64.30;;;;;;10140136;28;20170;-61
2021/05/15 17:22:39;;;;;;;0.60;0.50;;;15.80;65.70;;;;;;10148671;28;20067;-65
2021/05/15 17:27:30;;;;;;;1.08;0.57;;;15.20;67.50;;;;;;10137534;28;20309;-63
2021/05/15 17:32:20;;;;;;;2.33;0.60;;;14.90;68.10;;;;;;10138374;28;20364;-61
2021/05/15 17:37:12;;;;;;;0.80;0.50;;;14.50;68.90;;;;;;10153852;28;20467;-64
2021/05/15 17:42:03;;;;;;;0.57;0.40;;;14.40;69.30;;;;;;10148268;28;20123;-63
2021/05/15 17:46:55;;;;;;;4.72;1.83;;;14.20;69.70;;;;;;10153354;28;20288;-63
2021/05/15 17:51:48;;;;;;;0.95;0.50;;;14.20;70.20;;;;;;10146878;28;20024;-66
2021/05/15 17:56:39;;;;;;;2.70;0.80;;;14.10;70.60;;;;;;10151610;28;20074;-63
2021/05/15 18:01:30;;;;;;;0.82;0.20;;;13.90;71.00;;;;;;10145176;28;20526;-64
2021/05/15 18:06:21;;;;;;;1.15;0.70;;;13.80;71.80;;;;;;10138388;28;20052;-61
2021/05/15 18:11:12;;;;;;;1.70;0.88;;;13.70;73.00;;;;;;10141681;28;20036;-61
2021/05/15 18:16:04;;;;;;;1.25;0.60;;;13.60;72.90;;;;;;10150464;28;20606;-62
2021/05/15 18:20:55;;;;;;;0.85;0.60;;;13.60;72.90;;;;;;10136108;28;20089;-60
2021/05/15 18:25:46;;;;;;;1.77;0.95;;;13.70;73.00;;;;;;10146737;28;20301;-60
2021/05/15 18:30:37;;;;;;;1.67;0.90;;;13.80;73.20;;;;;;10162838;28;20557;-65
2021/05/15 18:35:28;;;;;;;0.70;0.50;;;14.00;72.90;;;;;;10144973;28;20059;-60
2021/05/15 18:40:19;;;;;;;2.20;0.70;;;14.00;73.10;;;;;;10144553;28;20055;-64
2021/05/15 18:45:10;;;;;;;2.15;0.70;;;13.90;73.60;;;;;;10148244;28;20433;-67
2021/05/15 18:50:01;;;;;;;2.25;0.80;;;13.80;73.90;;;;;;10134587;28;20044;-62
2021/05/15 18:54:52;;;;;;;1.52;0.80;;;13.70;74.30;;;;;;10156608;28;20028;-63
2021/05/15 18:59:43;;;;;;;1.95;0.95;;;13.70;74.40;;;;;;10143145;28;20127;-63
2021/05/15 19:04:34;;;;;;;2.67;0.95;;;13.70;74.20;;;;;;10151263;28;20043;-61
2021/05/15 19:09:25;;;;;;;2.70;1.00;;;13.60;73.90;;;;;;10143093;28;21021;-63
2021/05/15 19:14:16;;;;;;;2.83;0.98;;;13.60;73.70;;;;;;10138736;28;20387;-66
2021/05/15 19:19:07;;;;;;;2.50;1.25;;;13.50;74.30;;;;;;10159055;28;20542;-67
2021/05/15 19:23:58;;;;;;;3.22;0.65;;;13.40;73.30;;;;;;10156637;28;20576;-64
2021/05/15 19:28:51;;;;;;;1.70;0.75;;;13.40;73.10;;;;;;10135449;28;20047;-64
2021/05/15 19:33:42;;;;;;;2.15;1.08;;;13.20;72.80;;;;;;10144919;28;20629;-62
2021/05/15 19:38:33;;;;;;;3.85;0.82;;;13.10;72.60;;;;;;10144431;28;20314;-61
2021/05/15 19:43:23;;;;;;;2.92;0.85;;;13.00;72.60;;;;;;10149788;28;20063;-65
2021/05/15 19:48:14;;;;;;;3.28;0.98;;;12.90;72.60;;;;;;10150438;28;20406;-65
2021/05/15 19:53:05;;;;;;;4.40;1.08;;;12.90;72.00;;;;;;10156607;28;20028;-66
2021/05/15 19:57:58;;;;;;;1.52;1.17;;;12.80;72.00;;;;;;10151290;28;20052;-64
2021/05/15 20:02:51;;;;;;;3.85;1.33;;;12.70;72.10;;;;;;10154331;28;20077;-68
2021/05/15 20:07:48;;;;;;;1.10;0.60;;;12.70;71.90;;;;;;10136937;28;20036;-63
2021/05/15 20:12:39;;;;;;;4.78;2.25;;;12.70;72.10;;;;;;10144095;28;20036;-61
2021/05/15 20:17:30;;;;;;;1.55;0.88;;;12.60;72.20;;;;;;10140025;28;20507;-61
2021/05/15 20:22:21;;;;;;;1.58;0.68;;;12.70;72.20;;;;;;10144338;28;20304;-60
2021/05/15 20:27:12;;;;;;;1.48;0.55;;;12.60;72.00;;;;;;10145374;28;20064;-63
2021/05/15 20:32:03;;;;;;;1.42;0.75;;;12.60;72.10;;;;;;10150288;28;20846;-64
2021/05/15 20:36:54;;;;;;;4.78;1.20;;;12.60;71.80;;;;;;10133761;28;20159;-64
2021/05/15 20:41:45;;;;;;;2.20;0.82;;;12.60;71.80;;;;;;10143784;28;20036;-62
2021/05/15 20:46:36;;;;;;;0.60;0.40;;;12.60;71.90;;;;;;10144990;28;20104;-64
2021/05/15 20:51:30;;;;;;;1.10;0.60;;;12.60;71.70;;;;;;10150651;28;20059;-64
2021/05/15 20:56:21;;;;;;;0.97;0.40;;;12.60;71.70;;;;;;10140943;28;20066;-59
2021/05/15 21:01:12;;;;;;;2.22;0.82;;;12.50;71.70;;;;;;10136273;28;20474;-64
2021/05/15 21:06:04;;;;;;;2.65;0.88;;;12.40;71.90;;;;;;10144493;28;20125;-63
2021/05/15 21:10:55;;;;;;;4.10;0.80;;;12.50;71.90;;;;;;10143016;28;20746;-66
2021/05/15 21:15:50;;;;;;;3.42;1.10;;;12.40;71.80;;;;;;10140452;28;20778;-63
2021/05/15 21:20:41;;;;;;;9.93;2.05;;;12.60;71.50;;;;;;10135052;28;20043;-65
2021/05/15 21:25:38;;;;;;;3.38;1.45;;;12.50;71.40;;;;;;10130878;28;20070;-59
2021/05/15 21:30:29;;;;;;;1.40;0.65;;;12.60;71.40;;;;;;10141877;28;20122;-63
2021/05/15 21:35:20;;;;;;;3.20;1.05;;;12.40;71.80;;;;;;10148614;28;20124;-59
2021/05/15 21:40:19;;;;;;;1.05;0.50;;;12.30;72.50;;;;;;10130749;28;20312;-59
2021/05/15 21:45:12;;;;;;;1.33;0.57;;;12.30;73.00;;;;;;10145214;28;20082;-59
2021/05/15 21:50:12;;;;;;;1.85;0.82;;;12.30;72.80;;;;;;10149443;28;20440;-61
2021/05/15 21:55:06;;;;;;;1.55;0.82;;;12.30;73.20;;;;;;10144742;28;20046;-65
2021/05/15 21:59:57;;;;;;;0.60;0.47;;;12.20;73.40;;;;;;10143348;28;20032;-68
2021/05/15 22:04:49;;;;;;;0.70;0.60;;;12.20;73.70;;;;;;10142303;28;20115;-61
2021/05/15 22:09:40;;;;;;;1.70;0.80;;;12.10;73.90;;;;;;10144564;28;21310;-65
2021/05/15 22:14:31;;;;;;;3.00;0.73;;;12.20;74.20;;;;;;10147104;28;20036;-61
2021/05/15 22:19:22;;;;;;;0.57;0.57;;;12.10;74.50;;;;;;10146712;28;20028;-63
2021/05/15 22:24:13;;;;;;;0.90;0.50;;;12.00;74.90;;;;;;10137627;28;20521;-60
2021/05/15 22:29:05;;;;;;;1.63;0.82;;;12.00;75.20;;;;;;10148986;28;20450;-67
2021/05/15 22:33:58;;;;;;;1.30;0.70;;;12.00;75.90;;;;;;10138643;28;20032;-64
2021/05/15 22:38:52;;;;;;;1.50;0.90;;;12.00;75.50;;;;;;10143565;28;20154;-65
2021/05/15 22:43:43;;;;;;;1.63;0.93;;;12.00;75.50;;;;;;10148944;28;20131;-68
2021/05/15 22:48:36;;;;;;;3.58;1.92;;;12.00;75.70;;;;;;10136604;28;20059;-63
2021/05/15 22:53:27;;;;;;;1.17;0.85;;;12.00;75.90;;;;;;10138825;28;20140;-64
2021/05/15 22:58:19;;;;;;;1.83;0.73;;;12.00;75.80;;;;;;10150245;28;20370;-63
2021/05/15 23:03:11;;;;;;;1.98;1.42;;;12.00;76.30;;;;;;10146974;28;20039;-59
2021/05/15 23:08:02;;;;;;;1.63;0.80;;;12.00;76.40;;;;;;10145738;28;20618;-67
2021/05/15 23:12:53;;;;;;;2.78;0.63;;;12.00;76.40;;;;;;10155928;28;20058;-66
2021/05/15 23:17:44;;;;;;;1.15;0.70;;;12.00;76.40;;;;;;10144931;28;20362;-70
2021/05/15 23:22:35;;;;;;;2.08;0.77;;;12.00;76.60;;;;;;10157100;28;20044;-70
2021/05/15 23:27:26;;;;;;;2.22;0.90;;;12.00;76.40;;;;;;10159339;28;20047;-68
2021/05/15 23:32:20;;;;;;;1.80;0.88;;;12.00;76.60;;;;;;10152494;28;20055;-61
2021/05/15 23:37:11;;;;;;;2.60;1.15;;;11.90;76.80;;;;;;10151949;28;20036;-68
2021/05/15 23:42:02;;;;;;;1.67;0.73;;;11.90;77.10;;;;;;10154277;28;21351;-65
2021/05/15 23:46:53;;;;;;;2.40;0.73;;;11.90;77.10;;;;;;10159149;28;20655;-60
2021/05/15 23:51:44;;;;;;;3.55;0.80;;;11.90;77.10;;;;;;10155599;28;20039;-60
2021/05/15 23:56:35;;;;;;;2.45;0.77;;;12.00;77.00;;;;;;10153960;28;20047;-69
